sensor_id;sensor_type;location;lat;lon;timestamp;pressure;altitude;pressure_sealevel;temperature;humidity
16690;BME280;8458;52.220;9.884;2023-02-28T00:02:25;102342.28;;;2.92;77.77
16690;BME280;8458;52.220;9.884;2023-02-28T00:04:52;102334.06;;;2.92;77.66
16690;BME280;8458;52.220;9.884;2023-02-28T00:07:26;102339.72;;;2.90;77.83
16690;BME280;8458;52.220;9.884;2023-02-28T00:09:54;102332.19;;;2.92;77.67
16690;BME280;8458;52.220;9.884;2023-02-28T00:12:20;102339.38;;;2.93;77.73
16690;BME280;8458;52.220;9.884;2023-02-28T00:14:47;102341.06;;;2.94;77.69
16690;BME280;8458;52.220;9.884;2023-02-28T00:17:13;102339.72;;;2.90;77.97
16690;BME280;8458;52.220;9.884;2023-02-28T00:19:40;102338.84;;;2.90;78.10
16690;BME280;8458;52.220;9.884;2023-02-28T00:22:06;102338.50;;;2.93;77.99
16690;BME280;8458;52.220;9.884;2023-02-28T00:24:33;102331.16;;;2.93;77.86
16690;BME280;8458;52.220;9.884;2023-02-28T00:27:00;102342.81;;;2.87;78.04
16690;BME280;8458;52.220;9.884;2023-02-28T00:29:27;102334.22;;;2.82;77.91
16690;BME280;8458;52.220;9.884;2023-02-28T00:31:53;102342.09;;;2.85;77.51
16690;BME280;8458;52.220;9.884;2023-02-28T00:34:20;102329.81;;;2.81;77.08
16690;BME280;8458;52.220;9.884;2023-02-28T00:36:46;102336.97;;;2.82;77.24
16690;BME280;8458;52.220;9.884;2023-02-28T00:39:15;102333.91;;;2.77;77.01
16690;BME280;8458;52.220;9.884;2023-02-28T00:41:41;102329.63;;;2.74;77.24
16690;BME280;8458;52.220;9.884;2023-02-28T00:44:09;102332.53;;;2.73;77.56
16690;BME280;8458;52.220;9.884;2023-02-28T00:46:35;102330.66;;;2.65;77.66
16690;BME280;8458;52.220;9.884;2023-02-28T00:49:02;102331.03;;;2.62;77.72
16690;BME280;8458;52.220;9.884;2023-02-28T00:51:29;102325.00;;;2.58;77.97
16690;BME280;8458;52.220;9.884;2023-02-28T00:53:55;102330.84;;;2.55;77.82
16690;BME280;8458;52.220;9.884;2023-02-28T00:56:22;102336.66;;;2.44;77.10
16690;BME280;8458;52.220;9.884;2023-02-28T00:58:48;102337.34;;;2.46;76.95
16690;BME280;8458;52.220;9.884;2023-02-28T01:01:16;102337.34;;;2.46;76.87
16690;BME280;8458;52.220;9.884;2023-02-28T01:03:42;102345.72;;;2.44;76.57
16690;BME280;8458;52.220;9.884;2023-02-28T01:06:09;102342.31;;;2.42;76.27
16690;BME280;8458;52.220;9.884;2023-02-28T01:08:35;102339.41;;;2.44;76.54
16690;BME280;8458;52.220;9.884;2023-02-28T01:11:07;102340.75;;;2.40;76.39
16690;BME280;8458;52.220;9.884;2023-02-28T01:13:34;102346.06;;;2.33;76.02
16690;BME280;8458;52.220;9.884;2023-02-28T01:16:00;102346.25;;;2.31;76.39
16690;BME280;8458;52.220;9.884;2023-02-28T01:18:28;102340.75;;;2.31;76.22
16690;BME280;8458;52.220;9.884;2023-02-28T01:20:55;102334.25;;;2.24;76.55
16690;BME280;8458;52.220;9.884;2023-02-28T01:23:23;102344.84;;;2.19;76.72
16690;BME280;8458;52.220;9.884;2023-02-28T01:25:50;102342.97;;;2.20;76.39
16690;BME280;8458;52.220;9.884;2023-02-28T01:28:16;102340.56;;;2.08;76.57
16690;BME280;8458;52.220;9.884;2023-02-28T01:30:47;102341.91;;;2.04;76.49
16690;BME280;8458;52.220;9.884;2023-02-28T01:33:15;102335.75;;;2.02;76.86
16690;BME280;8458;52.220;9.884;2023-02-28T01:35:43;102339.34;;;2.03;76.71
16690;BME280;8458;52.220;9.884;2023-02-28T01:38:09;102334.91;;;2.02;76.69
16690;BME280;8458;52.220;9.884;2023-02-28T01:40:35;102331.81;;;1.96;75.83
16690;BME280;8458;52.220;9.884;2023-02-28T01:43:02;102334.19;;;1.91;76.23
16690;BME280;8458;52.220;9.884;2023-02-28T01:45:29;102328.53;;;1.85;76.77
16690;BME280;8458;52.220;9.884;2023-02-28T01:48:00;102328.72;;;1.83;76.84
16690;BME280;8458;52.220;9.884;2023-02-28T01:50:31;102317.94;;;1.82;77.03
16690;BME280;8458;52.220;9.884;2023-02-28T01:53:05;102322.53;;;1.81;76.78
16690;BME280;8458;52.220;9.884;2023-02-28T01:55:33;102322.34;;;1.74;76.35
16690;BME280;8458;52.220;9.884;2023-02-28T01:58:02;102329.00;;;1.72;75.90
16690;BME280;8458;52.220;9.884;2023-02-28T02:00:31;102317.53;;;1.68;75.50
16690;BME280;8458;52.220;9.884;2023-02-28T02:03:00;102327.41;;;1.61;75.88
16690;BME280;8458;52.220;9.884;2023-02-28T02:05:30;102325.56;;;1.61;75.80
16690;BME280;8458;52.220;9.884;2023-02-28T02:08:03;102320.75;;;1.55;75.73
16690;BME280;8458;52.220;9.884;2023-02-28T02:10:33;102316.28;;;1.54;75.62
16690;BME280;8458;52.220;9.884;2023-02-28T02:13:10;102309.75;;;1.47;75.66
16690;BME280;8458;52.220;9.884;2023-02-28T02:15:44;102322.75;;;1.45;75.39
16690;BME280;8458;52.220;9.884;2023-02-28T02:18:21;102320.50;;;1.40;75.66
16690;BME280;8458;52.220;9.884;2023-02-28T02:21:17;102310.97;;;1.45;75.92
16690;BME280;8458;52.220;9.884;2023-02-28T02:27:17;102311.44;;;1.32;75.17
16690;BME280;8458;52.220;9.884;2023-02-28T02:30:11;102301.16;;;1.25;75.42
16690;BME280;8458;52.220;9.884;2023-02-28T02:35:52;102297.38;;;1.27;75.31
16690;BME280;8458;52.220;9.884;2023-02-28T02:38:31;102294.81;;;1.25;75.76
16690;BME280;8458;52.220;9.884;2023-02-28T02:41:06;102294.81;;;1.25;75.90
16690;BME280;8458;52.220;9.884;2023-02-28T02:43:36;102296.03;;;1.22;75.73
16690;BME280;8458;52.220;9.884;2023-02-28T02:46:06;102295.31;;;1.20;75.73
16690;BME280;8458;52.220;9.884;2023-02-28T02:48:37;102295.31;;;1.20;76.44
16690;BME280;8458;52.220;9.884;2023-02-28T02:51:11;102296.34;;;1.19;76.77
16690;BME280;8458;52.220;9.884;2023-02-28T02:53:42;102298.03;;;1.20;77.17
16690;BME280;8458;52.220;9.884;2023-02-28T02:56:12;102300.09;;;1.18;76.74
16690;BME280;8458;52.220;9.884;2023-02-28T02:58:41;102307.38;;;1.10;76.56
16690;BME280;8458;52.220;9.884;2023-02-28T03:01:12;102310.59;;;1.05;77.13
16690;BME280;8458;52.220;9.884;2023-02-28T03:03:43;102314.03;;;1.07;76.90
16690;BME280;8458;52.220;9.884;2023-02-28T03:06:10;102306.84;;;1.06;77.41
16690;BME280;8458;52.220;9.884;2023-02-28T03:08:38;102304.97;;;1.06;77.42
16690;BME280;8458;52.220;9.884;2023-02-28T03:11:05;102307.22;;;1.11;77.27
16690;BME280;8458;52.220;9.884;2023-02-28T03:13:54;102306.16;;;1.04;76.94
16690;BME280;8458;52.220;9.884;2023-02-28T03:16:36;102301.38;;;1.06;76.94
16690;BME280;8458;52.220;9.884;2023-02-28T03:19:29;102298.63;;;0.98;76.93
16690;BME280;8458;52.220;9.884;2023-02-28T03:22:09;102301.03;;;1.01;76.38
16690;BME280;8458;52.220;9.884;2023-02-28T03:24:43;102306.66;;;0.99;77.03
16690;BME280;8458;52.220;9.884;2023-02-28T03:27:17;102306.66;;;0.99;77.55
16690;BME280;8458;52.220;9.884;2023-02-28T03:29:50;102310.19;;;0.92;77.93
16690;BME280;8458;52.220;9.884;2023-02-28T03:32:23;102316.66;;;0.91;77.64
16690;BME280;8458;52.220;9.884;2023-02-28T03:34:55;102307.38;;;0.83;77.99
16690;BME280;8458;52.220;9.884;2023-02-28T03:37:25;102309.13;;;0.84;78.18
16690;BME280;8458;52.220;9.884;2023-02-28T03:39:57;102309.75;;;0.78;77.40
16690;BME280;8458;52.220;9.884;2023-02-28T03:42:27;102311.03;;;0.66;77.38
16690;BME280;8458;52.220;9.884;2023-02-28T03:44:57;102312.19;;;0.63;77.71
16690;BME280;8458;52.220;9.884;2023-02-28T03:47:29;102308.31;;;0.66;77.63
16690;BME280;8458;52.220;9.884;2023-02-28T03:50:03;102315.66;;;0.65;77.20
16690;BME280;8458;52.220;9.884;2023-02-28T03:52:36;102318.53;;;0.64;77.59
16690;BME280;8458;52.220;9.884;2023-02-28T03:55:09;102317.59;;;0.73;77.27
16690;BME280;8458;52.220;9.884;2023-02-28T03:57:40;102322.47;;;0.69;77.06
16690;BME280;8458;52.220;9.884;2023-02-28T04:00:12;102322.28;;;0.63;77.59
16690;BME280;8458;52.220;9.884;2023-02-28T04:02:40;102320.38;;;0.63;77.92
16690;BME280;8458;52.220;9.884;2023-02-28T04:05:07;102325.16;;;0.61;78.16
16690;BME280;8458;52.220;9.884;2023-02-28T04:07:35;102324.31;;;0.61;77.25
16690;BME280;8458;52.220;9.884;2023-02-28T04:10:03;102318.44;;;0.56;78.21
16690;BME280;8458;52.220;9.884;2023-02-28T04:12:30;102326.00;;;0.62;77.90
16690;BME280;8458;52.220;9.884;2023-02-28T04:14:56;102325.47;;;0.58;77.29
16690;BME280;8458;52.220;9.884;2023-02-28T04:17:23;102327.53;;;0.56;77.53
16690;BME280;8458;52.220;9.884;2023-02-28T04:19:49;102328.31;;;0.48;77.35
16690;BME280;8458;52.220;9.884;2023-02-28T04:22:15;102324.88;;;0.46;77.95
16690;BME280;8458;52.220;9.884;2023-02-28T04:24:44;102328.47;;;0.47;77.39
16690;BME280;8458;52.220;9.884;2023-02-28T04:27:10;102334.63;;;0.49;77.67
16690;BME280;8458;52.220;9.884;2023-02-28T04:29:37;102328.47;;;0.47;77.59
16690;BME280;8458;52.220;9.884;2023-02-28T04:32:04;102331.88;;;0.49;78.00
16690;BME280;8458;52.220;9.884;2023-02-28T04:34:31;102327.28;;;0.49;78.19
16690;BME280;8458;52.220;9.884;2023-02-28T04:36:58;102334.47;;;0.50;78.04
16690;BME280;8458;52.220;9.884;2023-02-28T04:39:25;102334.84;;;0.56;77.56
16690;BME280;8458;52.220;9.884;2023-02-28T04:41:53;102331.72;;;0.50;77.81
16690;BME280;8458;52.220;9.884;2023-02-28T04:44:19;102336.66;;;0.47;77.56
16690;BME280;8458;52.220;9.884;2023-02-28T04:46:48;102334.78;;;0.47;77.18
16690;BME280;8458;52.220;9.884;2023-02-28T04:49:15;102339.59;;;0.53;77.86
16690;BME280;8458;52.220;9.884;2023-02-28T04:51:42;102345.59;;;0.57;78.09
16690;BME280;8458;52.220;9.884;2023-02-28T04:54:09;102348.44;;;0.47;78.84
16690;BME280;8458;52.220;9.884;2023-02-28T04:56:35;102343.59;;;0.41;79.61
16690;BME280;8458;52.220;9.884;2023-02-28T04:59:03;102348.84;;;0.34;79.54
16690;BME280;8458;52.220;9.884;2023-02-28T05:01:31;102344.59;;;0.40;80.02
16690;BME280;8458;52.220;9.884;2023-02-28T05:04:00;102340.19;;;0.39;79.48
16690;BME280;8458;52.220;9.884;2023-02-28T05:06:30;102341.19;;;0.38;79.72
16690;BME280;8458;52.220;9.884;2023-02-28T05:08:57;102346.31;;;0.41;79.03
16690;BME280;8458;52.220;9.884;2023-02-28T05:11:26;102351.16;;;0.47;79.20
16690;BME280;8458;52.220;9.884;2023-02-28T05:13:54;102341.41;;;0.45;79.23
16690;BME280;8458;52.220;9.884;2023-02-28T05:16:22;102338.66;;;0.45;79.27
16690;BME280;8458;52.220;9.884;2023-02-28T05:18:49;102342.97;;;0.47;78.75
16690;BME280;8458;52.220;9.884;2023-02-28T05:21:23;102344.69;;;0.48;78.78
16690;BME280;8458;52.220;9.884;2023-02-28T05:23:50;102339.06;;;0.50;79.20
16690;BME280;8458;52.220;9.884;2023-02-28T05:26:16;102350.53;;;0.53;79.37
16690;BME280;8458;52.220;9.884;2023-02-28T05:28:43;102350.22;;;0.57;79.23
16690;BME280;8458;52.220;9.884;2023-02-28T05:31:10;102347.63;;;0.55;79.49
16690;BME280;8458;52.220;9.884;2023-02-28T05:33:38;102343.03;;;0.56;78.74
16690;BME280;8458;52.220;9.884;2023-02-28T05:36:06;102335.00;;;0.54;78.99
16690;BME280;8458;52.220;9.884;2023-02-28T05:38:32;102343.66;;;0.49;78.49
16690;BME280;8458;52.220;9.884;2023-02-28T05:40:59;102339.38;;;0.47;78.55
16690;BME280;8458;52.220;9.884;2023-02-28T05:43:26;102334.94;;;0.46;78.69
16690;BME280;8458;52.220;9.884;2023-02-28T05:45:52;102336.09;;;0.43;78.98
16690;BME280;8458;52.220;9.884;2023-02-28T05:48:19;102335.97;;;0.27;78.93
16690;BME280;8458;52.220;9.884;2023-02-28T05:50:47;102338.22;;;0.13;79.68
16690;BME280;8458;52.220;9.884;2023-02-28T05:53:14;102334.06;;;0.09;79.94
16690;BME280;8458;52.220;9.884;2023-02-28T05:55:40;102339.38;;;0.11;80.19
16690;BME280;8458;52.220;9.884;2023-02-28T05:58:07;102340.09;;;0.13;80.07
16690;BME280;8458;52.220;9.884;2023-02-28T06:00:33;102350.56;;;0.17;80.31
16690;BME280;8458;52.220;9.884;2023-02-28T06:03:00;102345.09;;;0.17;79.66
16690;BME280;8458;52.220;9.884;2023-02-28T06:05:27;102349.38;;;0.20;79.79
16690;BME280;8458;52.220;9.884;2023-02-28T06:07:55;102347.66;;;0.19;79.81
16690;BME280;8458;52.220;9.884;2023-02-28T06:10:22;102340.31;;;0.20;79.56
16690;BME280;8458;52.220;9.884;2023-02-28T06:12:48;102341.63;;;0.15;79.30
16690;BME280;8458;52.220;9.884;2023-02-28T06:15:15;102336.19;;;0.15;79.22
16690;BME280;8458;52.220;9.884;2023-02-28T06:17:43;102348.03;;;0.06;78.99
16690;BME280;8458;52.220;9.884;2023-02-28T06:20:11;102344.28;;;0.07;79.17
16690;BME280;8458;52.220;9.884;2023-02-28T06:22:39;102351.06;;;0.03;79.33
16690;BME280;8458;52.220;9.884;2023-02-28T06:25:09;102356.47;;;0.13;79.31
16690;BME280;8458;52.220;9.884;2023-02-28T06:27:36;102350.84;;;0.14;79.74
16690;BME280;8458;52.220;9.884;2023-02-28T06:30:03;102362.16;;;0.20;79.50
16690;BME280;8458;52.220;9.884;2023-02-28T06:32:29;102366.91;;;0.17;79.87
16690;BME280;8458;52.220;9.884;2023-02-28T06:34:56;102366.50;;;0.12;79.58
16690;BME280;8458;52.220;9.884;2023-02-28T06:37:23;102367.53;;;0.11;79.62
16690;BME280;8458;52.220;9.884;2023-02-28T06:39:51;102382.78;;;0.04;79.75
16690;BME280;8458;52.220;9.884;2023-02-28T06:42:19;102381.06;;;0.03;80.58
16690;BME280;8458;52.220;9.884;2023-02-28T06:44:47;102384.28;;;-0.02;80.74
16690;BME280;8458;52.220;9.884;2023-02-28T06:47:13;102383.09;;;0.01;80.48
16690;BME280;8458;52.220;9.884;2023-02-28T06:49:40;102392.94;;;-0.06;79.77
16690;BME280;8458;52.220;9.884;2023-02-28T06:52:06;102392.31;;;0.00;79.97
16690;BME280;8458;52.220;9.884;2023-02-28T06:54:33;102391.13;;;0.03;80.68
16690;BME280;8458;52.220;9.884;2023-02-28T06:57:00;102397.06;;;-0.02;81.12
16690;BME280;8458;52.220;9.884;2023-02-28T06:59:28;102401.34;;;0.01;80.60
16690;BME280;8458;52.220;9.884;2023-02-28T07:01:54;102394.00;;;0.01;81.10
16690;BME280;8458;52.220;9.884;2023-02-28T07:04:21;102404.78;;;0.03;80.79
16690;BME280;8458;52.220;9.884;2023-02-28T07:06:47;102397.94;;;-0.02;80.63
16690;BME280;8458;52.220;9.884;2023-02-28T07:09:14;102397.34;;;-0.05;80.69
16690;BME280;8458;52.220;9.884;2023-02-28T07:11:41;102406.56;;;-0.06;81.41
16690;BME280;8458;52.220;9.884;2023-02-28T07:14:08;102410.38;;;0.01;81.69
16690;BME280;8458;52.220;9.884;2023-02-28T07:16:36;102410.06;;;0.04;81.42
16690;BME280;8458;52.220;9.884;2023-02-28T07:19:02;102408.34;;;0.03;81.74
16690;BME280;8458;52.220;9.884;2023-02-28T07:21:29;102406.59;;;0.12;81.54
16690;BME280;8458;52.220;9.884;2023-02-28T07:23:56;102414.63;;;0.13;82.06
16690;BME280;8458;52.220;9.884;2023-02-28T07:26:22;102414.91;;;0.10;81.55
16690;BME280;8458;52.220;9.884;2023-02-28T07:28:49;102413.50;;;0.06;81.04
16690;BME280;8458;52.220;9.884;2023-02-28T07:31:16;102422.25;;;0.10;81.42
16690;BME280;8458;52.220;9.884;2023-02-28T07:33:44;102415.63;;;0.12;81.58
16690;BME280;8458;52.220;9.884;2023-02-28T07:36:12;102424.22;;;0.17;81.93
16690;BME280;8458;52.220;9.884;2023-02-28T07:38:41;102418.00;;;0.25;82.11
16690;BME280;8458;52.220;9.884;2023-02-28T07:41:08;102420.25;;;0.30;82.83
16690;BME280;8458;52.220;9.884;2023-02-28T07:43:34;102418.22;;;0.32;82.02
16690;BME280;8458;52.220;9.884;2023-02-28T07:46:02;102420.34;;;0.38;81.83
16690;BME280;8458;52.220;9.884;2023-02-28T07:48:29;102415.25;;;0.43;82.57
16690;BME280;8458;52.220;9.884;2023-02-28T07:50:57;102414.94;;;0.46;82.52
16690;BME280;8458;52.220;9.884;2023-02-28T07:53:24;102418.09;;;0.51;82.82
16690;BME280;8458;52.220;9.884;2023-02-28T07:55:54;102420.72;;;0.61;83.08
16690;BME280;8458;52.220;9.884;2023-02-28T07:58:21;102411.06;;;0.67;83.34
16690;BME280;8458;52.220;9.884;2023-02-28T08:00:48;102413.53;;;0.78;83.47
16690;BME280;8458;52.220;9.884;2023-02-28T08:03:15;102405.41;;;0.86;83.17
16690;BME280;8458;52.220;9.884;2023-02-28T08:05:41;102416.63;;;1.01;83.79
16690;BME280;8458;52.220;9.884;2023-02-28T08:08:09;102415.50;;;1.12;83.50
16690;BME280;8458;52.220;9.884;2023-02-28T08:10:36;102414.38;;;1.23;83.39
16690;BME280;8458;52.220;9.884;2023-02-28T08:13:03;102408.59;;;1.26;83.31
16690;BME280;8458;52.220;9.884;2023-02-28T08:15:30;102408.16;;;1.39;83.07
16690;BME280;8458;52.220;9.884;2023-02-28T08:17:56;102406.50;;;1.46;82.05
16690;BME280;8458;52.220;9.884;2023-02-28T08:20:23;102402.41;;;1.50;82.18
16690;BME280;8458;52.220;9.884;2023-02-28T08:22:49;102406.91;;;1.59;81.75
16690;BME280;8458;52.220;9.884;2023-02-28T08:25:17;102407.63;;;1.70;81.14
16690;BME280;8458;52.220;9.884;2023-02-28T08:27:43;102414.50;;;1.74;80.53
16690;BME280;8458;52.220;9.884;2023-02-28T08:30:11;102405.81;;;1.78;80.59
16690;BME280;8458;52.220;9.884;2023-02-28T08:32:38;102412.97;;;1.79;80.23
16690;BME280;8458;52.220;9.884;2023-02-28T08:35:06;102421.06;;;1.55;79.44
16690;BME280;8458;52.220;9.884;2023-02-28T08:37:34;102418.09;;;1.40;80.00
16690;BME280;8458;52.220;9.884;2023-02-28T08:40:00;102420.09;;;1.38;79.63
16690;BME280;8458;52.220;9.884;2023-02-28T08:42:29;102420.56;;;1.59;79.74
16690;BME280;8458;52.220;9.884;2023-02-28T08:44:55;102417.00;;;1.67;78.52
16690;BME280;8458;52.220;9.884;2023-02-28T08:47:22;102418.28;;;1.81;78.24
16690;BME280;8458;52.220;9.884;2023-02-28T08:49:48;102425.81;;;1.79;77.66
16690;BME280;8458;52.220;9.884;2023-02-28T08:52:15;102424.91;;;1.70;77.63
16690;BME280;8458;52.220;9.884;2023-02-28T08:54:41;102424.16;;;1.94;77.44
16690;BME280;8458;52.220;9.884;2023-02-28T08:57:08;102419.75;;;2.10;76.78
16690;BME280;8458;52.220;9.884;2023-02-28T08:59:36;102419.09;;;2.16;74.75
16690;BME280;8458;52.220;9.884;2023-02-28T09:02:02;102421.66;;;2.18;74.71
16690;BME280;8458;52.220;9.884;2023-02-28T09:04:29;102423.06;;;2.22;74.00
16690;BME280;8458;52.220;9.884;2023-02-28T09:06:56;102421.00;;;2.32;74.37
16690;BME280;8458;52.220;9.884;2023-02-28T09:09:23;102427.38;;;2.41;73.64
16690;BME280;8458;52.220;9.884;2023-02-28T09:11:49;102421.56;;;2.44;73.09
16690;BME280;8458;52.220;9.884;2023-02-28T09:14:16;102422.94;;;2.48;72.75
16690;BME280;8458;52.220;9.884;2023-02-28T09:16:44;102427.91;;;2.53;72.63
16690;BME280;8458;52.220;9.884;2023-02-28T09:19:10;102422.59;;;2.51;71.79
16690;BME280;8458;52.220;9.884;2023-02-28T09:21:37;102425.19;;;2.53;71.81
16690;BME280;8458;52.220;9.884;2023-02-28T09:24:04;102427.41;;;2.57;71.62
16690;BME280;8458;52.220;9.884;2023-02-28T09:26:30;102421.59;;;2.60;71.91
16690;BME280;8458;52.220;9.884;2023-02-28T09:28:57;102425.69;;;2.64;72.93
16690;BME280;8458;52.220;9.884;2023-02-28T09:31:26;102425.34;;;2.76;73.58
16690;BME280;8458;52.220;9.884;2023-02-28T09:33:55;102420.72;;;2.93;73.42
16690;BME280;8458;52.220;9.884;2023-02-28T09:36:23;102417.81;;;3.02;72.51
16690;BME280;8458;52.220;9.884;2023-02-28T09:38:49;102428.44;;;3.14;71.78
16690;BME280;8458;52.220;9.884;2023-02-28T09:41:20;102421.56;;;3.26;71.30
16690;BME280;8458;52.220;9.884;2023-02-28T09:43:49;102429.59;;;3.36;71.80
16690;BME280;8458;52.220;9.884;2023-02-28T09:46:27;102418.09;;;3.40;71.39
16690;BME280;8458;52.220;9.884;2023-02-28T09:48:55;102426.31;;;3.49;70.08
16690;BME280;8458;52.220;9.884;2023-02-28T09:51:40;102420.81;;;3.57;70.43
16690;BME280;8458;52.220;9.884;2023-02-28T09:54:13;102421.97;;;3.71;70.08
16690;BME280;8458;52.220;9.884;2023-02-28T09:56:45;102414.22;;;3.74;69.26
16690;BME280;8458;52.220;9.884;2023-02-28T09:59:18;102424.19;;;3.75;68.97
16690;BME280;8458;52.220;9.884;2023-02-28T10:01:56;102427.22;;;3.81;69.65
16690;BME280;8458;52.220;9.884;2023-02-28T10:04:39;102423.41;;;3.90;70.43
16690;BME280;8458;52.220;9.884;2023-02-28T10:07:17;102427.84;;;3.99;69.92
16690;BME280;8458;52.220;9.884;2023-02-28T10:09:50;102427.78;;;4.07;70.27
16690;BME280;8458;52.220;9.884;2023-02-28T10:12:19;102420.91;;;4.11;70.08
16690;BME280;8458;52.220;9.884;2023-02-28T10:14:48;102428.63;;;4.16;69.40
16690;BME280;8458;52.220;9.884;2023-02-28T10:17:19;102416.78;;;4.16;69.45
16690;BME280;8458;52.220;9.884;2023-02-28T10:19:56;102422.22;;;4.24;68.98
16690;BME280;8458;52.220;9.884;2023-02-28T10:22:27;102424.91;;;4.32;68.58
16690;BME280;8458;52.220;9.884;2023-02-28T10:24:57;102418.03;;;4.36;68.23
16690;BME280;8458;52.220;9.884;2023-02-28T10:27:30;102423.28;;;4.46;68.93
16690;BME280;8458;52.220;9.884;2023-02-28T10:29:58;102416.50;;;4.57;67.96
16690;BME280;8458;52.220;9.884;2023-02-28T10:32:27;102422.00;;;4.57;68.62
16690;BME280;8458;52.220;9.884;2023-02-28T10:34:59;102410.06;;;4.49;67.83
16690;BME280;8458;52.220;9.884;2023-02-28T10:37:26;102424.75;;;4.57;67.48
16690;BME280;8458;52.220;9.884;2023-02-28T10:39:52;102413.72;;;4.65;67.17
16690;BME280;8458;52.220;9.884;2023-02-28T10:42:22;102419.69;;;4.69;66.78
16690;BME280;8458;52.220;9.884;2023-02-28T10:45:04;102415.75;;;4.71;65.16
16690;BME280;8458;52.220;9.884;2023-02-28T10:47:32;102422.94;;;4.72;66.56
16690;BME280;8458;52.220;9.884;2023-02-28T10:50:01;102417.44;;;4.72;65.60
16690;BME280;8458;52.220;9.884;2023-02-28T10:52:37;102417.44;;;4.72;64.88
16690;BME280;8458;52.220;9.884;2023-02-28T10:55:18;102417.44;;;4.72;64.93
16690;BME280;8458;52.220;9.884;2023-02-28T10:57:46;102418.78;;;4.76;64.88
16690;BME280;8458;52.220;9.884;2023-02-28T11:00:16;102413.72;;;4.88;65.57
16690;BME280;8458;52.220;9.884;2023-02-28T11:02:43;102412.78;;;4.96;65.26
16690;BME280;8458;52.220;9.884;2023-02-28T11:05:27;102416.81;;;5.08;65.45
16690;BME280;8458;52.220;9.884;2023-02-28T11:07:55;102405.63;;;5.25;64.61
16690;BME280;8458;52.220;9.884;2023-02-28T11:10:25;102404.13;;;5.37;63.45
16690;BME280;8458;52.220;9.884;2023-02-28T11:12:55;102404.78;;;5.39;61.50
16690;BME280;8458;52.220;9.884;2023-02-28T11:15:24;102406.03;;;5.36;61.00
16690;BME280;8458;52.220;9.884;2023-02-28T11:17:56;102404.88;;;5.31;62.54
16690;BME280;8458;52.220;9.884;2023-02-28T11:20:26;102402.59;;;5.19;61.52
16690;BME280;8458;52.220;9.884;2023-02-28T11:22:54;102405.06;;;5.14;61.19
16690;BME280;8458;52.220;9.884;2023-02-28T11:25:24;102397.38;;;5.10;62.09
16690;BME280;8458;52.220;9.884;2023-02-28T11:27:52;102397.75;;;5.07;61.64
16690;BME280;8458;52.220;9.884;2023-02-28T11:30:28;102392.50;;;4.97;61.49
16690;BME280;8458;52.220;9.884;2023-02-28T11:32:55;102382.22;;;4.91;62.95
16690;BME280;8458;52.220;9.884;2023-02-28T11:35:26;102389.03;;;4.80;62.43
16690;BME280;8458;52.220;9.884;2023-02-28T11:37:52;102386.84;;;4.75;62.71
16690;BME280;8458;52.220;9.884;2023-02-28T11:40:24;102388.56;;;4.76;63.46
16690;BME280;8458;52.220;9.884;2023-02-28T11:43:01;102385.06;;;4.82;62.01
16690;BME280;8458;52.220;9.884;2023-02-28T11:45:43;102381.75;;;4.87;61.22
16690;BME280;8458;52.220;9.884;2023-02-28T11:48:17;102374.69;;;4.93;62.10
16690;BME280;8458;52.220;9.884;2023-02-28T11:50:54;102368.16;;;5.09;61.57
16690;BME280;8458;52.220;9.884;2023-02-28T11:53:44;102373.47;;;5.10;62.18
16690;BME280;8458;52.220;9.884;2023-02-28T11:56:18;102372.34;;;5.19;61.58
16690;BME280;8458;52.220;9.884;2023-02-28T11:58:54;102376.34;;;5.32;61.93
16690;BME280;8458;52.220;9.884;2023-02-28T12:01:34;102355.44;;;5.37;60.86
16690;BME280;8458;52.220;9.884;2023-02-28T12:04:14;102361.34;;;5.34;60.45
16690;BME280;8458;52.220;9.884;2023-02-28T12:06:49;102361.81;;;5.38;60.15
16690;BME280;8458;52.220;9.884;2023-02-28T12:09:28;102355.66;;;5.51;58.66
16690;BME280;8458;52.220;9.884;2023-02-28T12:12:06;102355.47;;;5.52;58.63
16690;BME280;8458;52.220;9.884;2023-02-28T12:15:01;102356.09;;;5.54;57.56
16690;BME280;8458;52.220;9.884;2023-02-28T12:17:42;102350.34;;;5.49;55.12
16690;BME280;8458;52.220;9.884;2023-02-28T12:20:21;102353.56;;;5.38;54.73
16690;BME280;8458;52.220;9.884;2023-02-28T12:22:57;102344.47;;;5.23;54.48
16690;BME280;8458;52.220;9.884;2023-02-28T12:25:40;102358.88;;;5.10;55.28
16690;BME280;8458;52.220;9.884;2023-02-28T12:28:13;102350.81;;;5.08;56.55
16690;BME280;8458;52.220;9.884;2023-02-28T12:30:49;102343.13;;;5.03;56.99
16690;BME280;8458;52.220;9.884;2023-02-28T12:33:18;102343.38;;;4.94;57.45
16690;BME280;8458;52.220;9.884;2023-02-28T12:35:49;102337.97;;;4.85;57.21
16690;BME280;8458;52.220;9.884;2023-02-28T12:38:20;102338.41;;;4.74;57.51
16690;BME280;8458;52.220;9.884;2023-02-28T12:40:51;102338.78;;;4.71;57.54
16690;BME280;8458;52.220;9.884;2023-02-28T12:43:21;102338.28;;;4.67;57.78
16690;BME280;8458;52.220;9.884;2023-02-28T12:45:51;102333.16;;;4.64;58.57
16690;BME280;8458;52.220;9.884;2023-02-28T12:48:24;102334.03;;;4.65;59.60
16690;BME280;8458;52.220;9.884;2023-02-28T12:50:52;102332.31;;;4.64;60.04
16690;BME280;8458;52.220;9.884;2023-02-28T12:53:25;102328.53;;;4.65;60.35
16690;BME280;8458;52.220;9.884;2023-02-28T12:56:04;102320.94;;;4.67;59.58
16690;BME280;8458;52.220;9.884;2023-02-28T12:58:39;102317.53;;;4.65;58.98
16690;BME280;8458;52.220;9.884;2023-02-28T13:07:49;102311.44;;;4.55;59.19
16690;BME280;8458;52.220;9.884;2023-02-28T13:10:22;102311.81;;;4.52;59.19
16690;BME280;8458;52.220;9.884;2023-02-28T13:12:51;102304.59;;;4.51;59.33
16690;BME280;8458;52.220;9.884;2023-02-28T13:15:21;102310.78;;;4.53;59.97
16690;BME280;8458;52.220;9.884;2023-02-28T13:17:50;102302.84;;;4.58;59.16
16690;BME280;8458;52.220;9.884;2023-02-28T13:20:19;102297.63;;;4.63;58.75
16690;BME280;8458;52.220;9.884;2023-02-28T13:22:47;102292.72;;;4.73;57.56
16690;BME280;8458;52.220;9.884;2023-02-28T13:25:51;102288.09;;;4.89;55.92
16690;BME280;8458;52.220;9.884;2023-02-28T13:31:31;102282.59;;;5.18;57.06
16690;BME280;8458;52.220;9.884;2023-02-28T13:34:15;102277.94;;;5.34;55.46
16690;BME280;8458;52.220;9.884;2023-02-28T13:36:42;102278.22;;;5.39;52.63
16690;BME280;8458;52.220;9.884;2023-02-28T13:42:32;102259.44;;;5.43;52.92
16690;BME280;8458;52.220;9.884;2023-02-28T13:45:23;102272.34;;;5.42;51.31